Pagrindinis puslapis
METAR-TAF:

METAR-TAF

Oro uostai :

Ararakvara, San Paulas, Brazilija

platuma: 21-48-16S, ilguma: 048-08-25W, Aukštis: 711 m

Dabartinis oras

Ataskaita buvo paskelbta 1 valandą ir 24 minutes, ne 22:00 UTC
Vėjas 2 kt iš Pietų
Temperatūra 28°C
Drėgmė 40%
Slėgis 1016 hPa
Matomumas 10 km arba daugiau
nėra debesų žemiau 1500 m ir nėra kamuolinių lietaus debesų

METAR: SBAQ 162200Z 19002KT CAVOK 28/13 Q1016

Laikas: 20:24 (23:24 UTC)


TAF: trūkstamas

Orai ataskaitas ir orų prognozės (METAR, TAF).

turimą stotys yra geltonos ir raudonos taškus žemėlapyje.

Perkelti pele per norėdami pamatyti stoties vardą.

Tada spustelėkite, norėdami matyti oro stebėjimo ir prognozės.

Norėdami pakeisti žemėlapį: spustelėkite ant žalios mygtukų su juodo kryžiaus žemyn,; žalią mygtuką su brūkšneliu, jei norite nutolinti; arba žalių rodyklių gretimoms žemėlapius.


METAR-TAF: